Flight Track Log - Related Links

Times and Time Zones

All times are in EDT time to prevent confusion due to time zone crossing. See the EJA951 flight status page for this flight to view local times or setup timezone preferences in your user account.

Time Position Orientation Groundspeed Altitude Reporting Facility
EDT Latitude Longitude Course Direction KTS MPH feet Rate Location/Type
Thu 08:19:16 AM 39.9833 -75.9000 253° West 170 196 1,900  Level Philadelphia TRACON
Thu 08:20:38 AM 39.9625 -75.9900 253° West 188 216 4,400 1,986 Climbing New York Center
Thu 08:21:38 AM 39.9792 -76.0833 283° West 226 260 6,600 2,250 Climbing New York Center
Thu 08:22:38 AM 39.9769 -76.1806 268° West 262 302 8,900 2,200 Climbing New York Center
Thu 08:23:38 AM 39.9722 -76.2806 267° West 273 314 11,000 1,900 Climbing New York Center
Thu 08:24:38 AM 39.9719 -76.3781 270° West 291 335 12,700 1,750 Climbing New York Center
Thu 08:25:38 AM 39.9664 -76.4914 266° West 303 349 14,500 1,800 Climbing New York Center
Thu 08:26:38 AM 39.9642 -76.6211 269° West 326 375 16,300 1,600 Climbing New York Center
Thu 08:27:38 AM 39.9567 -76.7289 265° West 332 382 17,700 1,450 Climbing New York Center
Thu 08:28:38 AM 39.9517 -76.8694 267° West 346 398 19,200 1,600 Climbing New York Center
Thu 08:29:38 AM 39.9492 -76.9964 269° West 351 404 20,900 1,500 Climbing New York Center
Thu 08:30:38 AM 39.9422 -77.1258 266° West 356 410 22,200 1,400 Climbing New York Center
Thu 08:31:38 AM 39.9475 -77.2592 273° West 366 421 23,700 1,150 Climbing New York Center
Thu 08:32:38 AM 39.9525 -77.3978 273° West 371 427 24,500 650 Climbing New York Center
Thu 08:33:38 AM 39.9586 -77.5472 273° West 397 457 25,000 638 Climbing New York Center
Thu 08:34:12 AM 39.9619 -77.6278 273° West 419 482 25,500 766 Climbing Cleveland Center
Thu 08:35:12 AM 39.9619 -77.7850 270° West 434 499 26,200 600 Climbing Cleveland Center
Thu 08:36:12 AM 39.9636 -77.9447 271° West 439 505 26,700 500 Climbing Cleveland Center
Thu 08:37:12 AM 39.9631 -78.1100 270° West 445 512 27,200 450 Climbing Cleveland Center
Thu 08:38:12 AM 39.9639 -78.2400 271° West 450 518 27,600 650 Climbing Cleveland Center
Thu 08:39:12 AM 39.9592 -78.4272 268° West 462 532 28,500 900 Climbing Cleveland Center
Thu 08:40:12 AM 39.9581 -78.5925 270° West 462 532 29,400 900 Climbing Cleveland Center
Thu 08:41:12 AM 39.9567 -78.7575 269° West 462 532 30,300 950 Climbing Cleveland Center
Thu 08:42:12 AM 39.9592 -78.9228 271° West 462 532 31,300 1,000 Climbing Cleveland Center
Thu 08:43:12 AM 39.9700 -79.1042 275° West 457 526 32,300 1,000 Climbing Cleveland Center
Thu 08:44:12 AM 39.9742 -79.2692 272° West 457 526 33,300 992 Climbing Cleveland Center
Thu 08:45:13 AM 39.9822 -79.4397 274° West 457 526 34,300 1,250 Climbing Cleveland Center
Thu 08:46:12 AM 39.9858 -79.6022 272° West 457 526 35,800 1,613 Climbing Cleveland Center
Thu 08:47:12 AM 39.9911 -79.7594 273° West 457 526 37,500 1,250 Climbing Cleveland Center
Thu 08:48:12 AM 39.9964 -79.9219 272° West 451 519 38,300 750 Climbing Cleveland Center
Thu 08:49:12 AM 39.9994 -80.0844 271° West 451 519 39,000 750 Climbing Cleveland Center
Thu 08:50:12 AM 40.0042 -80.2525 272° West 461 531 39,800 863 Climbing Cleveland Center
Thu 08:51:52 AM 40.0097 -80.5278 272° West 461 531 41,300 963 Climbing Indianapolis Center
Thu 08:52:54 AM 40.0125 -80.6931 271° West 454 522 42,400 823 Climbing Indianapolis Center
Thu 08:53:56 AM 40.0158 -80.8544 272° West 445 512 43,000 293 Climbing Indianapolis Center
Thu 08:54:57 AM 40.0133 -81.0178 269° West 446 513 43,000  Level Indianapolis Center
Thu 08:55:59 AM 40.0108 -81.1822 269° West 448 516 43,000  Level Indianapolis Center
Thu 08:57:01 AM 40.0081 -81.3419 269° West 439 505 43,000  Level Indianapolis Center
Thu 08:58:03 AM 40.0053 -81.5017 269° West 436 502 43,000  Level Indianapolis Center
Thu 08:59:04 AM 40.0025 -81.6600 269° West 433 498 43,000  Level Indianapolis Center
Thu 09:00:06 AM 39.9981 -81.8433 268° West 437 503 43,000  Level Indianapolis Center
Thu 09:01:08 AM 39.9953 -82.0036 269° West 441 507 43,000  Level Indianapolis Center
Thu 09:02:10 AM 39.9906 -82.1636 268° West 444 511 43,000  Level Indianapolis Center
Thu 09:03:12 AM 39.9867 -82.3342 268° West 446 513 43,000  Level Indianapolis Center
Thu 09:04:13 AM 39.9819 -82.4869 268° West 448 516 43,000  Level Indianapolis Center
Thu 09:05:15 AM 39.9772 -82.6500 268° West 451 519 43,000  Level Indianapolis Center
Thu 09:07:19 AM 39.9669 -83.0064 268° West 450 518 43,000  Level Indianapolis Center
Thu 09:08:21 AM 39.9633 -83.1686 268° West 451 519 43,000  Level Indianapolis Center
Thu 09:09:23 AM 39.9594 -83.3289 268° West 450 518 43,000  Level Indianapolis Center
Thu 09:10:25 AM 39.9511 -83.5122 267° West 452 520 43,000  Level Indianapolis Center
Thu 09:11:27 AM 39.9461 -83.6803 268° West 454 522 43,000  Level Indianapolis Center
Thu 09:12:29 AM 39.9397 -83.8417 267° West 451 519 43,000  Level Indianapolis Center
Thu 09:13:31 AM 39.9331 -84.0028 267° West 450 518 43,000  Level Indianapolis Center
Thu 09:14:32 AM 39.9267 -84.1658 267° West 451 519 43,000  Level Indianapolis Center
Thu 09:15:34 AM 39.9197 -84.3258 267° West 447 514 43,000  Level Indianapolis Center
Thu 09:16:37 AM 39.9117 -84.5208 267° West 450 518 43,000  Level Indianapolis Center
Thu 09:17:38 AM 39.9039 -84.6825 266° West 449 517 43,000  Level Indianapolis Center
Thu 09:18:40 AM 39.8964 -84.8444 267° West 449 517 43,000  Level Indianapolis Center
Thu 09:19:42 AM 39.8886 -85.0100 267° West 452 520 43,000  Level Indianapolis Center
Thu 09:20:44 AM 39.8811 -85.1714 267° West 448 516 43,000  Level Indianapolis Center
Thu 09:21:46 AM 39.8711 -85.3333 265° West 451 519 43,000  Level Indianapolis Center
Thu 09:22:48 AM 39.8644 -85.4947 267° West 450 518 43,000  Level Indianapolis Center
Thu 09:23:50 AM 39.8597 -85.6883 268° West 447 514 43,000  Level Indianapolis Center
Thu 09:24:52 AM 39.8561 -85.8497 268° West 448 516 43,000  Level Indianapolis Center
Thu 09:25:54 AM 39.8519 -86.0108 268° West 449 517 43,000  Level Indianapolis Center
Thu 09:26:56 AM 39.8483 -86.1697 268° West 448 516 43,000  Level Indianapolis Center
Thu 09:27:58 AM 39.8411 -86.3547 267° West 446 513 43,000  Level Indianapolis Center
Thu 09:29:00 AM 39.8378 -86.5178 269° West 453 521 43,000  Level Indianapolis Center
Thu 09:30:02 AM 39.8319 -86.6772 267° West 449 517 43,000  Level Indianapolis Center
Thu 09:31:04 AM 39.8267 -86.8364 268° West 445 512 43,000  Level Indianapolis Center
Thu 09:32:06 AM 39.8208 -86.9972 267° West 447 514 43,000  Level Indianapolis Center
Thu 09:33:08 AM 39.8147 -87.1894 268° West 446 513 43,000  Level Indianapolis Center
Thu 09:34:10 AM 39.8075 -87.3500 267° West 447 514 43,000  Level Indianapolis Center
Thu 09:35:12 AM 39.8014 -87.5103 267° West 446 513 43,000  Level Indianapolis Center
Thu 09:36:14 AM 39.7958 -87.6703 267° West 446 513 43,000  Level Indianapolis Center
Thu 09:37:16 AM 39.7875 -87.8308 266° West 447 514 43,000  Level Indianapolis Center
Thu 09:38:18 AM 39.7806 -88.0222 267° West 445 512 43,000  Level Indianapolis Center
Thu 09:39:20 AM 39.7731 -88.1822 267° West 445 512 43,000  Level Indianapolis Center
Thu 09:39:58 AM 39.7672 -88.2736 265° West 443 510 43,000  Level Kansas City Center
Thu 09:41:00 AM 39.7597 -88.4367 267° West 448 516 43,000  Level Kansas City Center
Thu 09:42:02 AM 39.7542 -88.5950 267° West 444 511 43,000  Level Kansas City Center
Thu 09:43:03 AM 39.7456 -88.7567 266° West 446 513 43,000  Level Kansas City Center
Thu 09:44:05 AM 39.7350 -88.9517 266° West 449 517 43,000 97 Level Kansas City Center
Thu 09:45:07 AM 39.7253 -89.1125 266° West 448 516 43,200 387 Climbing Kansas City Center
Thu 09:46:09 AM 39.7181 -89.2708 267° West 444 511 43,800 484 Climbing Kansas City Center
Thu 09:47:11 AM 39.7094 -89.4294 266° West 441 507 44,200 387 Climbing Kansas City Center
Thu 09:48:13 AM 39.7006 -89.5828 266° West 439 505 44,600 339 Climbing Kansas City Center
Thu 09:49:15 AM 39.6914 -89.7406 266° West 440 506 44,900 194 Climbing Kansas City Center
Thu 09:50:17 AM 39.6800 -89.9300 266° West 441 507 45,000 49 Climbing Kansas City Center
Thu 09:51:18 AM 39.6694 -90.0894 265° West 443 510 45,000  Level Kansas City Center
Thu 09:52:20 AM 39.6600 -90.2506 266° West 448 516 45,000  Level Kansas City Center
Thu 09:53:22 AM 39.6489 -90.4131 265° West 452 520 45,000  Level Kansas City Center
Thu 09:54:24 AM 39.6386 -90.5747 265° West 453 521 45,000  Level Kansas City Center
Thu 09:55:26 AM 39.6258 -90.7694 265° West 454 522 45,000  Level Kansas City Center
Thu 09:56:28 AM 39.6158 -90.9314 265° West 454 522 45,000  Level Kansas City Center
Thu 09:57:30 AM 39.6033 -91.0928 264° West 453 521 45,000  Level Kansas City Center
Thu 09:58:32 AM 39.5911 -91.2550 264° West 454 522 45,000  Level Kansas City Center
Thu 09:59:34 AM 39.5772 -91.4383 264° West 454 522 45,000  Level Kansas City Center
Thu 10:00:36 AM 39.5642 -91.6008 264° West 455 524 45,000  Level Kansas City Center
Thu 10:01:38 AM 39.5522 -91.7622 265° West 455 524 45,000  Level Kansas City Center
Thu 10:02:40 AM 39.5392 -91.9258 264° West 456 525 45,000  Level Kansas City Center
Thu 10:03:42 AM 39.5275 -92.0847 265° West 450 518 45,000  Level Kansas City Center
Thu 10:04:44 AM 39.5150 -92.2464 264° West 451 519 45,000  Level Kansas City Center
Thu 10:05:46 AM 39.4981 -92.4392 264° West 451 519 45,000  Level Kansas City Center
Thu 10:06:48 AM 39.4847 -92.5992 264° West 449 517 45,000  Level Kansas City Center
Thu 10:07:50 AM 39.4711 -92.7603 264° West 450 518 45,000  Level Kansas City Center
Thu 10:08:52 AM 39.4572 -92.9214 264° West 451 519 45,000  Level Kansas City Center
Thu 10:09:54 AM 39.4433 -93.0811 264° West 450 518 45,000  Level Kansas City Center
Thu 10:10:56 AM 39.4269 -93.2400 262° West 449 517 45,000  Level Kansas City Center
Thu 10:11:58 AM 39.4117 -93.4311 264° West 448 516 45,000  Level Kansas City Center
Thu 10:13:00 AM 39.3961 -93.5908 263° West 449 517 45,000  Level Kansas City Center
Thu 10:14:01 AM 39.3808 -93.7678 264° West 446 513 45,000  Level Kansas City Center
Thu 10:15:03 AM 39.3667 -93.9175 263° West 446 513 45,000  Level Kansas City Center
Thu 10:16:05 AM 39.3522 -94.0689 263° West 445 512 45,000  Level Kansas City Center
Thu 10:17:07 AM 39.3356 -94.2461 263° West 445 512 45,000  Level Kansas City Center
Thu 10:18:09 AM 39.3200 -94.3981 263° West 445 512 45,000  Level Kansas City Center
Thu 10:19:11 AM 39.3028 -94.5744 263° West 444 511 45,000  Level Kansas City Center
Thu 10:20:13 AM 39.2869 -94.7275 262° West 447 514 45,000  Level Kansas City Center
Thu 10:21:15 AM 39.2883 -94.9069 271° West 457 526 45,000  Level Kansas City Center
Thu 10:22:17 AM 39.2906 -95.0594 271° West 446 513 45,000  Level Kansas City Center
Thu 10:23:19 AM 39.2928 -95.2433 271° West 447 514 45,000  Level Kansas City Center
Thu 10:24:21 AM 39.2961 -95.4031 272° West 447 514 45,000  Level Kansas City Center
Thu 10:25:23 AM 39.2981 -95.5625 271° West 445 512 45,000  Level Kansas City Center
Thu 10:26:25 AM 39.2994 -95.7397 271° West 444 511 45,000 145 Level Kansas City Center
Thu 10:27:27 AM 39.3006 -95.8925 271° West 444 511 45,300 290 Climbing Kansas City Center
Thu 10:28:29 AM 39.3014 -96.0419 270° West 437 503 45,600 290 Climbing Kansas City Center
Thu 10:29:31 AM 39.3025 -96.2039 271° West 437 503 45,900 242 Climbing Kansas City Center
Thu 10:30:33 AM 39.3028 -96.3600 270° West 437 503 46,100 145 Climbing Kansas City Center
Thu 10:31:35 AM 39.3047 -96.5422 271° West 437 503 46,200 97 Climbing Kansas City Center
Thu 10:32:37 AM 39.3044 -96.6933 270° West 439 505 46,300 144 Climbing Kansas City Center
Thu 10:33:40 AM 39.3047 -96.8694 270° West 440 506 46,500 96 Climbing Kansas City Center
Thu 10:34:42 AM 39.3047 -97.0219 270° West 442 509 46,500 97 Level Kansas City Center
Thu 10:35:44 AM 39.3050 -97.1983 270° West 441 507 46,700 145 Climbing Kansas City Center
Thu 10:36:46 AM 39.3044 -97.3503 270° West 442 509 46,800 97 Climbing Kansas City Center
Thu 10:37:48 AM 39.3042 -97.5247 270° West 442 509 46,900 97 Climbing Kansas City Center
Thu 10:38:50 AM 39.3033 -97.6800 270° West 441 507 47,000 48 Climbing Kansas City Center
Thu 10:39:52 AM 39.3022 -97.8381 270° West 440 506 47,000  Level Kansas City Center
Thu 10:40:54 AM 39.3006 -98.0044 269° West 437 503 47,000  Level Kansas City Center
Thu 10:41:56 AM 39.2992 -98.1814 269° West 441 507 47,000  Level Kansas City Center
Thu 10:42:58 AM 39.2964 -98.3453 269° West 444 511 47,000  Level Kansas City Center
Thu 10:44:00 AM 39.2944 -98.5064 269° West 447 514 47,000  Level Kansas City Center
Thu 10:45:02 AM 39.2922 -98.6672 269° West 447 514 47,000  Level Kansas City Center
Thu 10:46:04 AM 39.2914 -98.8211 270° West 448 516 47,000  Level Kansas City Center
Thu 10:47:06 AM 39.2875 -98.9889 268° West 454 522 47,000  Level Kansas City Center
Thu 10:48:08 AM 39.2850 -99.1492 269° West 449 517 47,000  Level Kansas City Center
Thu 10:48:58 AM 39.2806 -99.3036 268° West 449 517 47,000  Level Denver Center
Thu 10:50:00 AM 39.2778 -99.4594 269° West 453 521 47,000  Level Denver Center
Thu 10:51:14 AM 39.2736 -99.6403 268° West 452 520 47,000  Level Denver Center
Thu 10:52:28 AM 39.2686 -99.8475 268° West 452 520 47,000  Level Denver Center
Thu 10:53:31 AM 39.2633 -100.0283 268° West 452 520 47,000  Level Denver Center
Thu 10:54:33 AM 39.2586 -100.2067 268° West 447 514 47,000  Level Denver Center
Thu 10:55:35 AM 39.2706 -100.3561 276° West 440 506 47,000  Level Denver Center
Thu 10:56:37 AM 39.2864 -100.5300 277° West 437 503 47,000  Level Denver Center
Thu 10:57:39 AM 39.3000 -100.6797 277° West 438 504 47,000  Level Denver Center
Thu 10:58:41 AM 39.3158 -100.8550 277° West 440 506 47,000  Level Denver Center
Thu 10:59:44 AM 39.3294 -101.0047 277° West 438 504 47,000  Level Denver Center
Thu 11:00:46 AM 39.3450 -101.1789 277° West 437 503 47,000  Level Denver Center
Thu 11:01:48 AM 39.3575 -101.3297 276° West 441 507 47,000  Level Denver Center
Thu 11:02:50 AM 39.3725 -101.5069 276° West 445 512 47,000  Level Denver Center
Thu 11:03:52 AM 39.3850 -101.6583 276° West 444 511 47,000  Level Denver Center
Thu 11:04:54 AM 39.4017 -101.8122 278° West 450 518 47,000  Level Denver Center
Thu 11:05:56 AM 39.4211 -101.9914 278° West 451 519 47,000  Level Denver Center
Thu 11:06:59 AM 39.4392 -102.1436 279° West 447 514 47,000  Level Denver Center
Thu 11:08:00 AM 39.4575 -102.2989 279° West 452 520 47,000  Level Denver Center
Thu 11:09:03 AM 39.4761 -102.4767 278° West 453 521 47,000  Level Denver Center
Thu 11:10:05 AM 39.4939 -102.6364 278° West 450 518 47,000  Level Denver Center
Thu 11:11:07 AM 39.5147 -102.8278 278° West 450 518 47,000  Level Denver Center
Thu 11:12:09 AM 39.5300 -102.9875 277° West 449 517 47,000  Level Denver Center
Thu 11:13:11 AM 39.5472 -103.1489 278° West 453 521 47,000  Level Denver Center
Thu 11:14:13 AM 39.5625 -103.3103 277° West 453 521 47,000  Level Denver Center
Thu 11:15:15 AM 39.5792 -103.4722 278° West 454 522 47,000  Level Denver Center
Thu 11:16:17 AM 39.5958 -103.6331 278° West 454 522 47,000  Level Denver Center
Thu 11:17:19 AM 39.6153 -103.8286 277° West 461 531 47,000  Level Denver Center
Thu 11:18:21 AM 39.6306 -103.9889 277° West 447 514 47,000  Level Denver Center
Thu 11:19:23 AM 39.6467 -104.1511 277° West 456 525 47,000  Level Denver Center
Thu 11:20:25 AM 39.6617 -104.3119 277° West 449 517 47,000  Level Denver Center
Thu 11:21:28 AM 39.6772 -104.4967 276° West 459 528 47,000  Level Denver Center
Thu 11:22:30 AM 39.6844 -104.6617 273° West 460 529 47,000  Level Denver Center
Thu 11:23:32 AM 39.6661 -104.8297 262° West 467 537 47,000  Level Denver Center
Thu 11:24:34 AM 39.6503 -105.0069 263° West 457 526 47,000  Level Denver Center
Thu 11:25:36 AM 39.6356 -105.1500 262° West 451 519 47,000  Level Denver Center
Thu 11:26:38 AM 39.6142 -105.3442 262° West 459 528 47,000  Level Denver Center
Thu 11:27:40 AM 39.5972 -105.5061 262° West 450 518 47,000  Level Denver Center
Thu 11:28:42 AM 39.5792 -105.6703 262° West 457 526 47,000  Level Denver Center
Thu 11:29:44 AM 39.5608 -105.8344 262° West 458 527 47,000  Level Denver Center
Thu 11:30:46 AM 39.5453 -105.9936 263° West 449 517 47,000  Level Denver Center
Thu 11:31:48 AM 39.5239 -106.1717 261° West 456 525 47,000  Level Denver Center
Thu 11:32:50 AM 39.5033 -106.3497 262° West 458 527 47,000  Level Denver Center
Thu 11:33:52 AM 39.4847 -106.5094 261° West 458 527 47,000  Level Denver Center
Thu 11:34:54 AM 39.4625 -106.6897 261° West 456 525 47,000  Level Denver Center
Thu 11:35:57 AM 39.4425 -106.8461 261° West 458 527 47,000  Level Denver Center
Thu 11:36:59 AM 39.4136 -107.0261 258° West 459 528 47,000  Level Denver Center
Thu 11:38:01 AM 39.3844 -107.1792 256° West 458 527 47,000  Level Denver Center
Thu 11:39:03 AM 39.3544 -107.3311 256° West 457 526 47,000  Level Denver Center
Thu 11:40:05 AM 39.3192 -107.5089 256° West 457 526 47,000  Level Denver Center
Thu 11:41:07 AM 39.2883 -107.6622 255° West 459 528 47,000  Level Denver Center
Thu 11:42:09 AM 39.2542 -107.8400 256° West 458 527 47,000  Level Denver Center
Thu 11:43:11 AM 39.2228 -107.9944 255° West 460 529 47,000  Level Denver Center
Thu 11:44:13 AM 39.1869 -108.1747 256° West 464 534 47,000  Level Denver Center
Thu 11:45:15 AM 39.1561 -108.3281 256° West 461 531 47,000  Level Denver Center
Thu 11:46:17 AM 39.1158 -108.5086 254° West 469 540 47,000  Level Denver Center
Thu 11:47:19 AM 39.0856 -108.6656 256° West 469 540 47,000  Level Denver Center
Thu 11:48:33 AM 39.0542 -108.8192 255° West 461 531 47,000  Level Denver Center
Thu 11:49:36 AM 39.0244 -109.0269 260° West 461 531 47,000  Level Denver Center
Thu 11:50:38 AM 38.9967 -109.2086 259° West 462 532 47,000  Level Denver Center
Thu 11:51:40 AM 38.9747 -109.3647 260° West 462 532 47,000  Level Denver Center
Thu 11:52:42 AM 38.9464 -109.5456 259° West 462 532 47,000  Level Denver Center
Thu 11:53:44 AM 38.9236 -109.7014 259° West 463 533 47,000  Level Denver Center
Thu 11:54:46 AM 38.8989 -109.8575 259° West 466 536 47,000  Level Denver Center
Thu 11:55:16 AM 38.8828 -109.9600 259° West 464 534 47,000  Level Salt Lake Center
Thu 11:56:18 AM 38.8586 -110.1186 259° West 469 540 47,000  Level Salt Lake Center
Thu 11:56:50 AM 38.8461 -110.1964 258° West 468 539 47,000  Level Denver Center
Thu 11:57:20 AM 38.8306 -110.3017 259° West 469 540 47,000  Level Salt Lake Center
Thu 11:57:52 AM 38.8183 -110.3811 259° West 471 542 47,000  Level Denver Center
Thu 11:58:54 AM 38.7903 -110.5353 257° West 468 539 47,000  Level Denver Center
Thu 11:59:57 AM 38.7625 -110.7219 259° West 476 548 47,000  Level Denver Center
Thu 12:01:29 PM 38.7203 -110.9742 258° West 475 547 47,000  Level Salt Lake Center
Thu 12:02:31 PM 38.6931 -111.1397 258° West 476 548 47,000  Level Salt Lake Center
Thu 12:03:33 PM 38.6650 -111.3058 258° West 478 550 47,000  Level Salt Lake Center
Thu 12:04:35 PM 38.6369 -111.4706 258° West 477 549 47,000  Level Salt Lake Center
Thu 12:05:37 PM 38.6083 -111.6375 258° West 482 555 47,000  Level Salt Lake Center
Thu 12:06:39 PM 38.5733 -111.8369 257° West 481 554 47,000  Level Salt Lake Center
Thu 12:07:41 PM 38.5447 -112.0025 258° West 480 552 47,000  Level Salt Lake Center
Thu 12:08:43 PM 38.5158 -112.1675 257° West 479 551 47,000  Level Salt Lake Center
Thu 12:09:45 PM 38.4858 -112.3333 257° West 482 555 47,000  Level Salt Lake Center
Thu 12:10:47 PM 38.4558 -112.4983 257° West 481 554 47,000  Level Salt Lake Center
Thu 12:11:49 PM 38.4203 -112.6961 257° West 481 554 47,000  Level Salt Lake Center
Thu 12:12:51 PM 38.3892 -112.8608 257° West 481 554 47,000  Level Salt Lake Center
Thu 12:13:53 PM 38.3600 -113.0269 257° West 483 556 47,000  Level Salt Lake Center
Thu 12:14:55 PM 38.3472 -113.1953 265° West 483 556 47,000  Level Salt Lake Center
Thu 12:15:57 PM 38.3350 -113.3658 265° West 485 558 47,000  Level Salt Lake Center
Thu 12:16:59 PM 38.3192 -113.5686 264° West 485 558 47,000  Level Salt Lake Center
Thu 12:18:01 PM 38.3058 -113.7400 264° West 487 560 47,000  Level Salt Lake Center
Thu 12:19:03 PM 38.2922 -113.9111 264° West 488 562 47,000  Level Salt Lake Center
Thu 12:20:05 PM 38.2772 -114.0833 264° West 491 565 47,000  Level Salt Lake Center
Thu 12:21:07 PM 38.2625 -114.2558 264° West 493 567 47,000  Level Salt Lake Center
Thu 12:22:09 PM 38.2475 -114.4283 264° West 492 566 47,000  Level Salt Lake Center
Thu 12:23:11 PM 38.2353 -114.6356 266° West 492 566 47,000  Level Salt Lake Center
Thu 12:24:13 PM 38.2253 -114.8092 266° West 494 568 47,000  Level Salt Lake Center
Thu 12:25:15 PM 38.2139 -114.9808 265° West 491 565 47,000  Level Salt Lake Center
Thu 12:26:17 PM 38.2028 -115.1542 265° West 492 566 47,000  Level Salt Lake Center
Thu 12:27:20 PM 38.1908 -115.3394 265° West 489 563 47,000  Level Salt Lake Center
Thu 12:28:22 PM 38.1789 -115.5133 265° West 493 567 47,000  Level Salt Lake Center
Thu 12:29:24 PM 38.1672 -115.6856 265° West 490 564 47,000  Level Salt Lake Center
Thu 12:30:26 PM 38.1550 -115.8575 265° West 490 564 47,000  Level Salt Lake Center
Thu 12:31:28 PM 38.1400 -116.0642 265° West 490 564 47,000  Level Salt Lake Center
Thu 12:32:30 PM 38.1281 -116.2347 265° West 487 560 47,000  Level Salt Lake Center
Thu 12:33:32 PM 38.1139 -116.4092 264° West 494 568 47,000  Level Salt Lake Center
Thu 12:34:34 PM 38.1008 -116.5811 265° West 492 566 47,000  Level Salt Lake Center
Thu 12:35:36 PM 38.0869 -116.7553 264° West 494 568 47,000  Level Salt Lake Center
Thu 12:36:38 PM 38.0733 -116.9297 264° West 494 568 47,000  Level Salt Lake Center
Thu 12:37:40 PM 38.0578 -117.1058 264° West 496 571 47,000  Level Salt Lake Center
Thu 12:38:42 PM 38.0422 -117.2903 264° West 500 575 47,000  Level Salt Lake Center
Thu 12:39:44 PM 38.0289 -117.4683 265° West 503 579 47,000  Level Oakland Center
Thu 12:40:46 PM 37.9919 -117.6353 254° West 493 567 47,000  Level Oakland Center
Thu 12:41:47 PM 37.9178 -117.8253 244° Southwest 501 577 47,000 -195 Level Oakland Center
Thu 12:42:49 PM 37.8564 -117.9836 244° Southwest 501 577 46,600 -683 Descending Oakland Center
Thu 12:43:50 PM 37.7942 -118.1408 243° Southwest 500 575 45,600 -976 Descending Oakland Center
Thu 12:44:52 PM 37.7314 -118.3003 244° Southwest 505 581 44,600 -1,065 Descending Oakland Center
Thu 12:45:54 PM 37.6706 -118.4567 244° Southwest 500 575 43,400 -1,854 Descending Oakland Center
Thu 12:46:55 PM 37.6100 -118.6108 244° Southwest 494 568 40,800 -2,098 Descending Oakland Center
Thu 12:47:57 PM 37.5464 -118.7656 243° Southwest 494 568 39,100 -1,366 Descending Oakland Center
Thu 12:48:58 PM 37.4825 -118.9267 243° Southwest 514 592 38,000 -1,122 Descending Oakland Center
Thu 12:50:00 PM 37.4061 -119.1175 243° Southwest 512 589 36,800 -1,113 Descending Oakland Center
Thu 12:51:02 PM 37.3439 -119.2717 243° Southwest 497 572 35,700 -976 Descending Oakland Center
Thu 12:52:03 PM 37.2789 -119.4300 243° Southwest 509 586 34,800 -976 Descending Oakland Center
Thu 12:53:05 PM 37.2144 -119.5886 243° Southwest 512 589 33,700 -1,024 Descending Oakland Center
Thu 12:54:06 PM 37.1481 -119.7472 242° Southwest 515 593 32,700 -976 Descending Oakland Center
Thu 12:55:08 PM 37.0814 -119.9106 243° Southwest 526 605 31,700 -968 Descending Oakland Center
Thu 12:56:10 PM 37.0125 -120.0747 242° Southwest 534 615 30,700 -829 Descending Oakland Center
Thu 12:57:11 PM 36.9342 -120.2614 242° Southwest 529 609 30,000 -878 Descending Oakland Center
Thu 12:58:13 PM 36.8658 -120.4250 242° Southwest 528 608 28,900 -1,756 Descending Oakland Center
Thu 12:59:14 PM 36.7975 -120.5883 242° Southwest 520 598 26,400 -2,976 Descending Oakland Center
Thu 01:00:16 PM 36.7339 -120.7383 242° Southwest 502 578 22,800 -3,435 Descending Oakland Center
Thu 01:01:18 PM 36.7075 -120.8869 258° West 461 531 19,300 -3,220 Descending Oakland Center
Thu 01:02:19 PM 36.7000 -121.0364 266° West 445 512 16,200 -3,073 Descending Oakland Center
Thu 01:03:21 PM 36.6900 -121.1844 265° West 437 503 13,000 -2,878 Descending Oakland Center
Thu 01:04:22 PM 36.6794 -121.3453 265° West 410 472 10,300 -1,659 Descending Oakland Center
Thu 01:05:24 PM 36.6739 -121.4475 266° West 326 375 9,600 -1,415 Descending Oakland Center
Thu 01:06:25 PM 36.6675 -121.5425 265° West 287 330 7,400 -1,268 Descending Oakland Center
Thu 01:07:27 PM 36.6650 -121.6408 268° West 284 327 7,000 -195 Descending Oakland Center
Thu 01:08:28 PM 36.7014 -121.7261 298° West 274 315 7,000 -537 Level Oakland Center
Thu 01:09:30 PM 36.7322 -121.8153 293° West 274 315 5,900 -1,293 Descending Oakland Center
Thu 01:10:24 PM 36.7667 -121.9000 297° West 262 302 4,500 -1,158 Descending Northern Cal TRACON
Thu 01:11:24 PM 36.7833 -121.9833 284° West 229 264 3,700 -694 Descending Northern Cal TRACON
Thu 01:12:25 PM 36.8000 -122.0500 287° West 238 274 3,100 -300 Descending Northern Cal TRACON
Thu 01:13:24 PM 36.7500 -122.0833 208° Southwest 223 257 3,100 -235 Level Northern Cal TRACON
Thu 01:15:24 PM 36.6500 -122.0333 158° South 204 235 2,400 -309 Descending Northern Cal TRACON
Thu 01:16:19 PM 36.6333 -121.9667 107° East 181 208 2,200 -337 Descending Northern Cal TRACON
Thu 01:16:53 PM 36.6242 -121.9608 153° Southeast 197 227 1,900 -625 Descending Oakland Center
Thu 01:17:55 PM 36.6108 -121.9053 107° East 170 196 1,200 -488 Descending Oakland Center
Thu 01:18:56 PM 36.5992 -121.8703 113° Southeast 161 185 900 -295 Descending Oakland Center

Login

Don't have an account? Register now (free) for customized features, flight alerts, and more!